createdAt,value
2023-01-31T00:04:09.256Z,1.51
2023-01-31T00:14:09.995Z,2.36
2023-01-31T00:24:10.091Z,1.32
2023-01-31T00:34:10.178Z,2.27
2023-01-31T00:44:11.842Z,0.19
2023-01-31T00:54:12.581Z,2.36
2023-01-31T01:04:13.247Z,1.13
2023-01-31T01:14:13.213Z,1.14
2023-01-31T01:24:13.149Z,1.04
2023-01-31T01:34:13.325Z,0.95
2023-01-31T01:44:13.223Z,1.51
2023-01-31T01:54:13.212Z,2.65
2023-01-31T02:04:13.311Z,0.66
2023-01-31T02:14:13.256Z,0.95
2023-01-31T02:24:13.452Z,2.17
2023-01-31T02:34:13.393Z,1.23
2023-01-31T02:44:32.551Z,2.17
2023-01-31T02:54:34.573Z,0.19
2023-01-31T03:04:36.758Z,0.47
2023-01-31T03:14:37.420Z,1.61
2023-01-31T03:24:37.716Z,1.61
2023-01-31T03:34:38.552Z,0.19
2023-01-31T03:44:38.461Z,0.76
2023-01-31T03:54:38.963Z,1.13
2023-01-31T04:04:39.364Z,0.75
2023-01-31T04:14:39.362Z,0.94
2023-01-31T04:24:39.365Z,1.13
2023-01-31T04:34:39.429Z,1.03
2023-01-31T04:44:39.399Z,2.35
2023-01-31T04:54:39.421Z,0.56
2023-01-31T05:04:40.117Z,0.56
2023-01-31T05:14:40.570Z,1.03
2023-01-31T05:24:40.521Z,1.68
2023-01-31T05:34:40.522Z,1.03
2023-01-31T05:44:40.554Z,2.43
2023-01-31T05:54:40.540Z,1.12
2023-01-31T06:04:40.548Z,2.15
2023-01-31T06:14:40.574Z,1.78
2023-01-31T06:24:40.546Z,1.68
2023-01-31T06:34:40.678Z,2.99
2023-01-31T06:44:40.608Z,2.06
2023-01-31T06:54:41.151Z,0.09
2023-01-31T07:04:41.634Z,0.93
2023-01-31T07:14:42.208Z,0.93
2023-01-31T07:24:42.645Z,1.40
2023-01-31T07:34:42.670Z,3.37
2023-01-31T07:44:42.567Z,0.28
2023-01-31T07:54:42.596Z,1.04
2023-01-31T08:04:42.842Z,1.98
2023-01-31T08:14:42.650Z,0.76
2023-01-31T08:24:42.717Z,0.19
2023-01-31T08:34:43.472Z,1.80
2023-01-31T08:44:43.795Z,2.38
2023-01-31T08:54:43.705Z,0.95
2023-01-31T09:04:43.761Z,0.10
2023-01-31T09:14:43.795Z,0.38
2023-01-31T09:24:45.671Z,0.95
2023-01-31T09:34:47.066Z,0.48
2023-01-31T09:44:47.550Z,0.47
2023-01-31T09:54:47.775Z,1.42
2023-01-31T10:04:47.893Z,1.42
2023-01-31T10:14:49.690Z,0.85
2023-01-31T10:24:49.831Z,0.85
2023-01-31T10:34:49.938Z,1.04
2023-01-31T10:44:52.994Z,2.07
2023-01-31T10:54:52.845Z,0.38
2023-01-31T11:04:52.947Z,1.70
2023-01-31T11:14:54.010Z,1.71
2023-01-31T11:24:53.915Z,3.04
2023-01-31T11:34:53.979Z,1.71
2023-01-31T11:44:53.893Z,1.23
2023-01-31T11:54:53.937Z,2.65
2023-01-31T12:04:53.972Z,1.89
2023-01-31T12:14:53.960Z,0.28
2023-01-31T12:24:53.952Z,0.19
2023-01-31T12:35:00.789Z,1.14
2023-01-31T12:44:56.726Z,0.94
2023-01-31T12:54:56.975Z,1.70
2023-01-31T13:04:57.090Z,1.13
2023-01-31T13:14:57.117Z,0.47
2023-01-31T13:24:57.065Z,0.85
2023-01-31T13:34:57.136Z,0.75
2023-01-31T13:44:57.081Z,4.13
2023-01-31T13:55:00.247Z,2.24
2023-01-31T14:05:00.142Z,3.72
2023-01-31T14:15:00.108Z,2.22
2023-01-31T14:25:00.362Z,2.39
2023-01-31T14:35:00.170Z,5.04
2023-01-31T14:45:00.185Z,3.75
2023-01-31T14:55:00.177Z,4.65
2023-01-31T15:04:59.551Z,19.38
2023-01-31T15:15:03.437Z,3.26
2023-01-31T15:25:03.441Z,3.89
2023-01-31T15:35:03.215Z,3.89
2023-01-31T15:45:03.278Z,6.23
2023-01-31T15:55:04.457Z,5.14
2023-01-31T16:05:04.239Z,5.14
2023-01-31T16:15:04.330Z,3.51
2023-01-31T16:25:04.702Z,4.59
2023-01-31T16:35:05.277Z,2.70
2023-01-31T16:45:05.429Z,5.84
2023-01-31T16:55:05.266Z,5.39
2023-01-31T17:05:05.321Z,8.63
2023-01-31T17:15:05.435Z,7.28
2023-01-31T17:25:05.328Z,4.13
2023-01-31T17:35:05.456Z,6.10
2023-01-31T17:45:05.576Z,5.21
2023-01-31T17:55:05.446Z,5.03
2023-01-31T18:05:05.402Z,6.38
2023-01-31T18:15:05.419Z,7.27
2023-01-31T18:25:05.543Z,7.62
2023-01-31T18:35:05.584Z,7.43
2023-01-31T18:45:05.546Z,9.12
2023-01-31T18:55:05.458Z,8.30
2023-01-31T19:05:05.515Z,6.50
2023-01-31T19:15:05.535Z,8.57
2023-01-31T19:25:07.367Z,5.45
2023-01-31T19:35:07.480Z,5.99
2023-01-31T19:45:10.383Z,6.98
2023-01-31T19:55:10.597Z,5.11
2023-01-31T20:05:12.614Z,6.00
2023-01-31T20:15:12.650Z,2.96
2023-01-31T20:25:12.547Z,2.69
2023-01-31T20:35:12.617Z,3.86
2023-01-31T20:45:12.695Z,1.62
2023-01-31T20:55:12.924Z,2.15
2023-01-31T21:05:13.656Z,0.72
2023-01-31T21:15:13.700Z,0.90
2023-01-31T21:25:13.586Z,1.97
2023-01-31T21:35:14.329Z,2.41
2023-01-31T21:45:14.715Z,2.77
2023-01-31T21:55:16.368Z,1.97
2023-01-31T22:05:16.647Z,1.70
2023-01-31T22:15:16.760Z,2.96
2023-01-31T22:25:16.703Z,3.59
2023-01-31T22:35:16.761Z,4.67
2023-01-31T22:45:19.847Z,1.17
2023-01-31T22:55:19.755Z,5.30
2023-01-31T23:05:19.707Z,5.56
2023-01-31T23:15:19.875Z,5.11
2023-01-31T23:25:19.791Z,5.01
2023-01-31T23:35:19.756Z,6.71
2023-01-31T23:45:20.851Z,5.19
2023-01-31T23:55:22.261Z,5.63
